Latest Weather Observations for Cape Grim

IDT60801

Issued at 12:35 pm EDT Tuesday 25 November 2014 (issued every 30 minutes, with the page automatically refreshed every 10 minutes)

About weather observations | Map of weather stations | Latest weather observations for TAS | Other Formats
Station Details ID: 091331 Name: CAPE GRIM Lat: -40.68 Lon: 144.69 Height: 86.0 m
Data from the previous 72 hours. | See also: Recent months at Cape Grim
Date/Time
EDT
Temp
°C
App
Temp
°C
Dew
Point
Rel
Hum
%
Delta-T
°C
Wind Press
QNH
hPa
Press
MSL
hPa
Rain
since 9 am
mm
Dir
 
Spd
km/h
Gust
km/h
Spd
kts
Gust
kts
25/12:30pm 13.3 6.9 8.6 73 2.4 W 32 59 17 32 1014.6 1014.6 0.0
25/12:00pm 13.3 6.7 8.4 72 2.5 W 33 54 18 29 1014.2 1014.2 0.0
25/11:32am 13.1 6.7 8.4 73 2.3 W 32 50 17 27 1014.0 1014.0 0.0
25/11:30am 13.1 6.5 8.6 74 2.3 W 33 50 18 27 1014.0 1014.0 0.0
25/11:00am 12.7 5.7 8.4 75 2.1 W 35 61 19 33 1013.7 1013.7 0.0
25/10:30am 12.8 6.3 8.3 74 2.2 W 32 52 17 28 1013.5 1013.5 0.0
25/10:01am 12.9 7.3 8.8 76 2.1 W 28 50 15 27 1013.3 1013.3 0.0
25/10:00am 13.0 7.9 9.1 77 2.0 W 26 50 14 27 1013.3 1013.3 0.0
25/09:30am 12.6 6.9 8.5 76 2.0 WSW 28 52 15 28 1013.0 1013.0 0.0
25/09:00am 12.6 6.0 8.7 77 2.0 WSW 33 56 18 30 1012.8 1012.8 2.2
25/08:30am 12.4 6.0 8.5 77 1.9 WSW 32 54 17 29 1012.2 1012.2 2.2
25/08:00am 12.9 6.0 8.8 76 2.1 WSW 35 61 19 33 1011.7 1011.7 2.2
25/07:30am 12.1 6.1 8.8 80 1.7 W 30 50 16 27 1011.4 1011.4 2.2
25/07:00am 12.5 5.8 8.2 75 2.1 W 33 54 18 29 1010.9 1010.9 2.2
25/06:30am 12.1 5.5 8.6 79 1.7 WSW 33 54 18 29 1010.5 1010.5 2.2
25/06:00am 11.8 4.8 8.5 80 1.6 WSW 35 59 19 32 1010.2 1010.2 2.2
25/05:30am 11.4 4.4 8.4 82 1.5 WSW 35 61 19 33 1009.7 1009.7 2.2
25/05:00am 12.0 5.1 9.0 82 1.5 WSW 35 59 19 32 1009.3 1009.3 2.0
25/04:30am 11.8 5.3 8.3 79 1.7 W 32 54 17 29 1009.0 1009.0 2.0
25/04:00am 12.3 5.3 8.4 77 1.9 W 35 61 19 33 1008.6 1008.5 2.0
25/03:30am 12.3 5.1 9.0 80 1.7 W 37 59 20 32 1008.6 1008.5 2.0
25/03:00am 12.3 5.4 8.8 79 1.8 W 35 61 19 33 1008.6 1008.5 2.0
25/02:30am 12.0 4.0 9.0 82 1.5 W 41 63 22 34 1008.6 1008.5 2.0
25/02:00am 12.6 5.0 9.1 79 1.8 W 39 61 21 33 1008.4 1008.3 2.0
25/01:30am 12.4 4.7 8.7 78 1.9 W 39 61 21 33 1008.4 1008.3 2.0
25/01:00am 12.2 4.8 8.3 77 1.9 W 37 56 20 30 1008.6 1008.5 2.0
25/12:30am 12.4 4.7 8.5 77 1.9 W 39 59 21 32 1008.6 1008.5 1.8
25/12:00am 12.7 5.4 8.8 77 2.0 W 37 56 20 30 1008.5 1008.4 1.8
 
Date/Time
EDT
Temp
°C
App
Temp
°C
Dew
Point
Rel
Hum
%
Delta-T
°C
Wind Press
QNH
hPa
Press
MSL
hPa
Rain
since 9 am
mm
Dir
 
Spd
km/h
Gust
km/h
Spd
kts
Gust
kts
24/11:31pm 12.9 5.8 8.2 73 2.3 W 35 54 19 29 1008.7 1008.6 1.8
24/11:30pm 13.0 5.6 8.5 74 2.3 W 37 54 20 29 1008.7 1008.6 1.8
24/11:00pm 13.1 6.5 8.6 74 2.3 W 33 50 18 27 1008.8 1008.7 1.8
24/10:41pm 12.8 6.2 7.9 72 2.4 W 32 50 17 27 1009.0 1009.0 1.8
24/10:30pm 13.0 6.2 7.5 69 2.7 W 33 50 18 27 1009.0 1009.0 1.8
24/10:25pm 13.0 6.9 8.1 72 2.4 W 30 48 16 26 1009.0 1009.0 1.8
24/10:00pm 13.0 6.2 7.7 70 2.6 W 33 48 18 26 1008.8 1008.7 1.8
24/09:37pm 12.8 5.8 7.0 68 2.8 W 33 52 18 28 1008.7 1008.6 1.8
24/09:30pm 12.9 5.2 6.9 67 2.9 W 37 52 20 28 1008.6 1008.5 1.8
24/09:00pm 12.9 5.5 6.9 67 2.9 W 35 54 19 29 1008.3 1008.2 1.8
24/08:30pm 12.9 5.9 6.7 66 3.0 W 33 52 18 28 1008.0 1007.9 1.8
24/08:00pm 13.3 7.1 8.0 70 2.6 W 30 50 16 27 1007.4 1007.3 1.8
24/07:30pm 13.6 7.6 8.7 72 2.5 WSW 30 50 16 27 1006.9 1006.8 1.8
24/07:01pm 13.5 8.0 9.2 75 2.2 W 28 48 15 26 1006.0 1005.9 1.8
24/07:00pm 13.6 8.6 9.6 77 2.1 W 26 46 14 25 1006.0 1005.9 1.8
24/06:30pm 13.5 9.3 9.7 78 2.0 W 22 41 12 22 1005.8 1005.7 1.8
24/06:00pm 13.5 9.3 9.9 79 1.9 WSW 22 43 12 23 1005.8 1005.7 1.8
24/05:30pm 12.7 6.3 9.2 79 1.8 SW 33 46 18 25 1005.8 1005.7 1.8
24/05:00pm 12.1 5.8 9.7 85 1.2 SW 33 44 18 24 1005.9 1005.8 1.8
24/04:53pm 12.1 6.0 10.3 89 0.9 SW 33 44 18 24 1005.6 1005.6 1.8
24/04:30pm 12.2 7.5 10.8 91 0.7 W 26 39 14 21 1005.8 1005.7 1.8
24/04:00pm 12.5 7.9 11.2 92 0.7 W 26 48 14 26 1005.8 1005.7 1.8
24/03:30pm 12.7 9.3 11.1 90 0.8 W 20 30 11 16 1005.9 1005.8 1.4
24/03:00pm 13.1 11.4 11.2 88 1.0 WSW 11 17 6 9 1006.0 1005.9 1.2
24/02:47pm 13.4 11.7 11.1 86 1.2 W 11 26 6 14 1005.9 1005.8 1.2
24/02:30pm 14.3 14.9 12.0 86 1.2 CALM 0 4 0 2 1006.1 1006.0 1.0
24/02:00pm 14.4 12.9 11.9 85 1.4 ENE 11 15 6 8 1006.4 1006.3 1.0
24/01:30pm 14.6 12.0 12.1 85 1.4 ENE 17 20 9 11 1006.7 1006.6 1.0
24/01:00pm 15.1 11.5 13.0 87 1.2 ENE 24 32 13 17 1007.0 1006.9 1.0
24/12:30pm 14.9 10.9 12.9 88 1.1 ENE 26 32 14 17 1006.9 1006.8 1.0
24/12:00pm 15.3 12.1 13.0 86 1.3 ENE 22 26 12 14 1007.2 1007.1 1.0
24/11:30am 15.3 12.7 13.8 91 0.8 ENE 20 24 11 13 1007.4 1007.3 1.0
24/11:00am 14.4 11.7 12.8 90 0.9 ENE 19 22 10 12 1008.4 1008.3 1.0
24/10:30am 14.0 10.4 12.0 88 1.1 NE 22 26 12 14 1009.5 1009.5 0.6
24/10:00am 14.4 9.8 12.4 88 1.1 ENE 28 35 15 19 1009.0 1009.0 0.2
24/09:30am 14.6 11.1 13.3 92 0.7 NE 24 32 13 17 1008.9 1008.9 0.2
24/09:00am 14.4 11.6 13.1 92 0.7 NNE 20 26 11 14 1010.2 1010.2 1.4
24/08:30am 14.2 11.3 12.9 92 0.7 ENE 20 26 11 14 1008.7 1008.6 1.4
24/08:00am 13.8 10.8 12.5 92 0.7 ENE 20 24 11 13 1009.1 1009.1 1.4
24/07:30am 13.6 11.1 12.3 92 0.7 NE 17 22 9 12 1009.5 1009.5 0.8
24/07:00am 13.4 10.5 12.3 93 0.6 NE 19 22 10 12 1009.2 1009.2 0.8
24/06:30am 13.5 11.1 12.6 94 0.5 NE 17 19 9 10 1009.5 1009.5 0.8
24/06:00am 13.7 10.4 12.8 94 0.5 NE 22 24 12 13 1009.2 1009.2 0.4
24/05:30am 13.6 11.6 12.7 94 0.5 NNE 15 19 8 10 1008.7 1008.6 0.2
24/05:00am 13.7 10.8 12.8 94 0.5 NNE 20 24 11 13 1009.2 1009.2 0.2
24/04:30am 13.9 10.7 13.0 94 0.5 NNE 22 28 12 15 1009.0 1009.0 0.2
24/04:29am 13.9 10.7 13.0 94 0.5 NNE 22 28 12 15 1009.1 1009.1 0.2
24/04:00am 13.9 10.7 13.0 94 0.5 NNE 22 28 12 15 1009.9 1009.9 0.2
24/03:58am 13.9 10.7 13.0 94 0.5 NNE 22 28 12 15 1009.9 1009.9 0.2
24/03:50am 13.9 10.7 13.0 94 0.5 N 22 28 12 15 1010.0 1010.0 0.2
24/03:30am 13.9 9.5 13.0 94 0.5 N 28 32 15 17 1010.4 1010.4 0.2
24/03:02am 13.5 9.8 12.6 94 0.5 NNE 24 30 13 16 1011.0 1011.0 0.0
24/03:00am 13.3 9.5 12.4 94 0.5 NNE 24 30 13 16 1011.0 1011.0 0.0
24/02:30am 13.0 9.9 12.1 94 0.5 NNE 20 26 11 14 1011.3 1011.3 0.0
24/02:00am 12.9 8.6 12.0 94 0.5 NNE 26 30 14 16 1011.3 1011.3 0.0
24/01:30am 12.1 8.8 11.0 93 0.6 NNE 19 24 10 13 1011.6 1011.6 0.0
24/01:00am 12.2 8.8 11.1 93 0.6 NNE 20 22 11 12 1012.0 1012.0 0.0
24/12:30am 12.2 8.9 10.9 92 0.7 NNE 19 20 10 11 1012.2 1012.2 0.0
24/12:00am 11.8 9.5 10.4 91 0.7 NE 13 13 7 7 1012.3 1012.3 0.0
 
Date/Time
EDT
Temp
°C
App
Temp
°C
Dew
Point
Rel
Hum
%
Delta-T
°C
Wind Press
QNH
hPa
Press
MSL
hPa
Rain
since 9 am
mm
Dir
 
Spd
km/h
Gust
km/h
Spd
kts
Gust
kts
23/11:30pm 11.7 9.3 9.9 89 0.9 E 13 13 7 7 1012.1 1012.1 0.0
23/11:00pm 13.3 13.4 11.5 89 1.0 WSW 2 6 1 3 1012.5 1012.5 0.0
23/10:30pm 13.1 11.8 11.3 89 1.0 WNW 9 11 5 6 1012.9 1012.9 0.0
23/10:00pm 13.2 12.3 11.4 89 1.0 WNW 7 9 4 5 1013.0 1013.0 0.0
23/09:30pm 13.4 12.7 11.5 88 1.0 WNW 6 7 3 4 1012.9 1012.9 0.0
23/09:00pm 13.3 12.6 11.4 88 1.0 WNW 6 7 3 4 1012.9 1012.9 0.0
23/08:30pm 13.4 12.1 11.3 87 1.1 NNW 9 13 5 7 1013.1 1013.1 0.0
23/08:00pm 13.8 12.1 11.3 85 1.3 WNW 11 15 6 8 1013.2 1013.2 0.0
23/07:30pm 14.5 12.5 11.6 83 1.6 WNW 13 17 7 9 1013.0 1013.0 0.0
23/07:00pm 15.0 12.8 12.0 82 1.6 W 15 17 8 9 1013.0 1013.0 0.0
23/06:30pm 15.4 13.4 11.6 78 2.1 W 13 15 7 8 1012.9 1012.9 0.0
23/06:00pm 15.6 13.7 11.8 78 2.1 W 13 19 7 10 1012.6 1012.6 0.0
23/05:30pm 15.8 13.9 11.8 77 2.2 W 13 17 7 9 1012.4 1012.4 0.0
23/05:00pm 16.1 14.3 12.1 77 2.2 W 13 19 7 10 1012.5 1012.5 0.0
23/04:30pm 16.3 14.5 12.1 76 2.3 W 13 17 7 9 1012.2 1012.2 0.0
23/04:00pm 15.9 13.5 11.5 75 2.4 W 15 22 8 12 1012.1 1012.1 0.0
23/03:30pm 15.5 12.7 11.3 76 2.3 W 17 24 9 13 1011.9 1011.9 0.0
23/03:00pm 15.4 12.6 11.2 76 2.3 W 17 24 9 13 1011.7 1011.7 0.0
23/02:30pm 16.0 13.5 12.4 79 2.0 W 17 24 9 13 1011.7 1011.7 0.0
23/02:00pm 15.5 12.8 11.7 78 2.1 W 17 24 9 13 1011.7 1011.7 0.0
23/01:30pm 15.5 13.3 12.1 80 1.9 W 15 22 8 12 1012.0 1012.0 0.0
23/01:00pm 16.0 13.9 12.4 79 2.0 W 15 19 8 10 1012.0 1012.0 0.0
23/12:30pm 15.7 13.4 11.7 77 2.2 W 15 20 8 11 1012.2 1012.2 0.0
23/12:00pm 15.6 13.3 11.8 78 2.1 W 15 20 8 11 1012.3 1012.3 0.0
23/11:30am 15.3 12.5 11.5 78 2.1 W 17 20 9 11 1012.3 1012.3 0.0
23/11:00am 15.3 12.6 11.7 79 2.0 W 17 22 9 12 1012.1 1012.1 0.0
23/10:30am 15.1 12.8 11.7 80 1.8 W 15 20 8 11 1012.1 1012.1 0.0
23/10:00am 14.7 12.2 11.1 79 1.9 W 15 20 8 11 1011.9 1011.9 0.0
23/09:30am 14.8 12.4 11.4 80 1.8 W 15 20 8 11 1011.9 1011.9 0.0
23/09:00am 14.5 12.1 11.3 81 1.7 W 15 22 8 12 1011.6 1011.6 0.4
23/08:30am 14.0 11.4 10.8 81 1.7 W 15 20 8 11 1011.2 1011.2 0.4
23/08:00am 13.9 11.0 10.9 82 1.6 W 17 26 9 14 1010.9 1010.9 0.4
23/07:30am 13.5 11.2 10.3 81 1.7 W 13 22 7 12 1010.5 1010.5 0.4
23/07:00am 13.3 10.3 10.5 83 1.5 WSW 17 30 9 16 1010.1 1010.1 0.4
23/06:30am 13.1 9.6 10.3 83 1.5 WSW 19 33 10 18 1009.8 1009.8 0.4
23/06:00am 13.1 9.6 10.8 86 1.2 W 20 35 11 19 1009.4 1009.4 0.4
23/05:30am 12.9 9.0 10.8 87 1.1 W 22 37 12 20 1008.9 1008.9 0.4
23/05:00am 13.1 9.8 11.5 90 0.9 W 20 35 11 19 1008.6 1008.5 0.4
23/04:30am 13.1 10.1 11.8 92 0.7 W 19 32 10 17 1008.3 1008.2 0.4
23/04:00am 13.1 9.9 12.0 93 0.6 W 20 35 11 19 1007.9 1007.8 0.4
23/03:43am 13.2 10.1 12.1 93 0.6 W 20 37 11 20 1007.8 1007.7 0.4
23/03:30am 13.1 9.9 12.0 93 0.6 W 20 39 11 21 1007.8 1007.7 0.4
23/03:00am 13.3 10.2 12.2 93 0.6 WSW 20 33 11 18 1007.7 1007.6 0.4
23/02:30am 13.3 10.8 12.2 93 0.6 SW 17 28 9 15 1007.7 1007.6 0.4
23/02:00am 13.5 10.5 12.4 93 0.6 W 20 33 11 18 1007.7 1007.6 0.4
23/01:30am 13.2 9.7 12.1 93 0.6 WSW 22 33 12 18 1007.8 1007.7 0.4
23/01:00am 13.3 9.4 12.2 93 0.6 W 24 39 13 21 1007.7 1007.6 0.4
23/12:30am 13.9 10.5 12.6 92 0.7 SW 22 35 12 19 1007.3 1007.2 0.4
23/12:00am 14.0 11.2 12.6 91 0.8 WSW 19 35 10 19 1007.1 1007.0 0.4
 
Date/Time
EDT
Temp
°C
App
Temp
°C
Dew
Point
Rel
Hum
%
Delta-T
°C
Wind Press
QNH
hPa
Press
MSL
hPa
Rain
since 9 am
mm
Dir
 
Spd
km/h
Gust
km/h
Spd
kts
Gust
kts
22/11:45pm 14.1 12.1 12.8 92 0.7 WSW 15 22 8 12 1007.0 1006.9 0.4
22/11:30pm 14.0 10.7 12.7 92 0.7 W 22 30 12 16 1007.0 1006.9 0.4
22/11:00pm 14.1 12.1 12.8 92 0.7 WNW 15 20 8 11 1007.0 1006.9 0.4
22/10:30pm 13.7 12.8 12.6 93 0.6 ENE 9 13 5 7 1006.7 1006.6 0.4
22/10:00pm 13.6 11.2 12.5 93 0.6 ENE 17 20 9 11 1006.2 1006.1 0.4
22/09:30pm 14.3 11.6 13.0 92 0.7 ENE 19 22 10 12 1005.9 1005.8 0.4
22/09:00pm 14.2 11.3 12.8 91 0.8 ENE 20 24 11 13 1005.4 1005.4 0.4
22/08:30pm 14.9 11.8 13.3 90 0.9 ENE 22 26 12 14 1005.2 1005.2 0.4
22/08:00pm 15.0 11.8 13.2 89 1.0 E 22 26 12 14 1005.0 1005.0 0.4
22/07:30pm 15.3 11.8 13.3 88 1.1 E 24 28 13 15 1004.8 1004.8 0.4
22/07:00pm 15.7 12.1 13.2 85 1.4 ENE 24 30 13 16 1004.9 1004.9 0.4
22/06:30pm 16.7 13.2 13.4 81 1.9 ENE 24 30 13 16 1004.9 1004.9 0.4
22/06:00pm 16.3 12.4 13.2 82 1.7 ENE 26 30 14 16 1004.9 1004.9 0.4
22/05:30pm 16.0 11.7 13.1 83 1.6 E 28 33 15 18 1005.0 1005.0 0.4
22/05:00pm 16.4 11.5 13.7 84 1.5 ENE 32 35 17 19 1005.0 1005.0 0.4
22/04:30pm 17.0 12.7 14.3 84 1.5 ENE 30 35 16 19 1005.2 1005.2 0.4
22/04:00pm 17.4 12.5 14.3 82 1.8 ENE 33 39 18 21 1005.3 1005.3 0.4
22/03:30pm 16.9 12.1 14.0 83 1.7 ENE 32 39 17 21 1005.4 1005.4 0.4
22/03:00pm 17.0 12.7 14.5 85 1.4 ENE 30 37 16 20 1006.2 1006.1 0.4
22/02:30pm 16.0 12.0 14.2 89 1.0 ENE 28 33 15 18 1006.5 1006.4 0.4
22/02:00pm 14.5 10.5 13.0 91 0.8 ENE 26 32 14 17 1007.3 1007.2 0.4
22/01:30pm 14.9 10.5 12.9 88 1.1 NE 28 35 15 19 1008.2 1008.1 0.0
22/01:00pm 14.8 9.5 13.0 89 1.0 ENE 33 39 18 21 1008.0 1007.9 0.0

Other Formats:

Comma delimited format used in spreadsheet applications
http://www.bom.gov.au/fwo/IDT60801/IDT60801.95954.axf

JavaScript Object Notation format (JSON) in row-major order
http://www.bom.gov.au/fwo/IDT60801/IDT60801.95954.json